Time;durP1;ratioP1;P1;durP2;ratioP2;P2;SDS_P1;SDS_P2;PMS_P1;PMS_P2;Temp;Humidity;BMP_temperature;BMP_pressure;BME280_temperature;BME280_humidity;BME280_pressure;Samples;Min_cycle;Max_cycle;Signal;HPM_P1;HPM_P2
2021/10/03 00:00:18;;;;;;;;;;;;;;;13.13;63.57;98373.38;1651763;85;20326;-88
2021/10/03 00:02:54;;;;;;;;;;;;;;;13.16;63.59;98378.37;1653685;85;21605;-88
2021/10/03 00:05:26;;;;;;;;;;;;;;;13.14;63.61;98378.52;1654213;85;21501;-88
2021/10/03 00:07:55;;;;;;;;;;;;;;;13.13;63.62;98375.53;1654107;85;26058;-83
2021/10/03 00:10:22;;;;;;;;;;;;;;;13.09;63.63;98379.31;1653608;85;25036;-83
2021/10/03 00:12:48;;;;;;;;;;;;;;;13.07;63.61;98368.59;1653975;85;20223;-86
2021/10/03 00:15:14;;;;;;;;;;;;;;;13.04;63.63;98364.40;1654248;85;24718;-88
2021/10/03 00:17:40;;;;;;;;;;;;;;;13.05;63.66;98366.55;1634294;85;21959;-88
2021/10/03 00:20:08;;;;;;;;;;;;;;;13.02;63.68;98370.27;1627344;86;26087;-83
2021/10/03 00:22:35;;;;;;;;;;;;;;;13.03;63.67;98363.23;1622015;87;24427;-83
2021/10/03 00:25:01;;;;;;;;;;;;;;;13.02;63.68;98366.34;1613819;87;20250;-88
2021/10/03 00:27:27;;;;;;;;;;;;;;;13.03;63.74;98361.92;1612454;87;20218;-88
2021/10/03 00:29:55;;;;;;;;;;;;;;;13.03;63.76;98360.61;1620392;87;20286;-86
2021/10/03 00:32:22;;;;;;;;;;;;;;;13.03;63.77;98356.66;1614487;87;25988;-88
2021/10/03 00:34:48;;;;;;;;;;;;;;;13.03;63.79;98354.03;1614862;87;24633;-88
2021/10/03 00:37:14;;;;;;;;;;;;;;;13.04;63.80;98350.45;1613402;87;20333;-87
2021/10/03 00:39:40;;;;;;;;;;;;;;;13.03;63.82;98348.78;1608634;87;20313;-83
2021/10/03 00:42:06;;;;;;;;;;;;;;;13.02;63.85;98348.42;1627241;86;21993;-82
2021/10/03 00:44:32;;;;;;;;;;;;;;;12.98;63.84;98357.05;1614692;87;26906;-83
2021/10/03 00:46:58;;;;;;;;;;;;;;;12.96;63.84;98347.96;1612295;87;24452;-87
2021/10/03 00:49:33;;;;;;;;;;;;;;;12.96;63.86;98347.96;1590576;87;20164;-87
2021/10/03 00:51:55;;;;;;;;;;;;;;;12.96;63.90;98348.44;1613580;86;25953;-87
2021/10/03 00:54:21;;;;;;;;;;;;;;;12.90;63.91;98335.32;1617167;87;21475;-83
2021/10/03 00:56:48;;;;;;;;;;;;;;;12.89;63.93;98340.21;1626296;87;21034;-88
2021/10/03 00:59:14;;;;;;;;;;;;;;;12.87;63.95;98338.17;1621731;87;24456;-83
2021/10/03 01:01:40;;;;;;;;;;;;;;;12.88;63.96;98338.53;1612923;87;20229;-87
2021/10/03 01:04:06;;;;;;;;;;;;;;;12.87;63.96;98336.86;1616019;87;24868;-87
2021/10/03 01:06:35;;;;;;;;;;;;;;;12.86;63.96;98331.28;1618333;87;22746;-85
2021/10/03 01:09:05;;;;;;;;;;;;;;;12.88;63.98;98333.28;1614622;87;26031;-88
2021/10/03 01:11:31;;;;;;;;;;;;;;;12.86;64.00;98328.66;1621017;87;25150;-88
2021/10/03 01:13:57;;;;;;;;;;;;;;;12.83;64.02;98320.17;1646860;85;20251;-86
2021/10/03 01:16:23;;;;;;;;;;;;;;;12.82;63.99;98321.95;1617945;87;24813;-87
2021/10/03 01:18:49;;;;;;;;;;;;;;;12.80;63.97;98317.80;1577398;89;22202;-85
2021/10/03 01:21:15;;;;;;;;;;;;;;;12.79;63.94;98316.97;1627756;86;27461;-87
2021/10/03 01:23:42;;;;;;;;;;;;;;;12.81;63.93;98317.69;1636957;86;24568;-86
2021/10/03 01:26:08;;;;;;;;;;;;;;;12.83;63.93;98315.75;1639996;86;20235;-84
2021/10/03 01:28:35;;;;;;;;;;;;;;;12.85;63.95;98315.64;1636017;86;20344;-87
2021/10/03 01:31:06;;;;;;;;;;;;;;;12.86;63.94;98314.69;1642253;85;21994;-83
2021/10/03 01:33:29;;;;;;;;;;;;;;;12.86;63.93;98314.21;1640783;86;25980;-88
2021/10/03 01:35:56;;;;;;;;;;;;;;;12.82;63.96;98307.52;1631522;86;24519;-87
2021/10/03 01:38:22;;;;;;;;;;;;;;;12.81;63.95;98303.72;1636481;86;20498;-88
2021/10/03 01:40:49;;;;;;;;;;;;;;;12.85;63.96;98292.00;1640347;86;24837;-87
2021/10/03 01:43:15;;;;;;;;;;;;;;;12.84;63.96;98289.85;1639380;86;21962;-87
2021/10/03 01:45:47;;;;;;;;;;;;;;;12.85;63.95;98291.52;1635923;86;26793;-87
2021/10/03 01:48:15;;;;;;;;;;;;;;;12.81;63.95;98283.55;1638370;85;24468;-87
2021/10/03 01:50:43;;;;;;;;;;;;;;;12.78;63.95;98285.09;1639601;86;20282;-83
2021/10/03 01:53:10;;;;;;;;;;;;;;;12.77;63.97;98286.05;1636096;86;24751;-86
2021/10/03 01:55:38;;;;;;;;;;;;;;;12.69;64.02;98279.77;1638582;86;22058;-86
2021/10/03 01:58:04;;;;;;;;;;;;;;;12.61;64.03;98281.68;1633258;86;26009;-87
2021/10/03 02:00:31;;;;;;;;;;;;;;;12.56;64.01;98281.22;1635503;86;24503;-87
2021/10/03 02:02:58;;;;;;;;;;;;;;;12.59;64.03;98278.36;1624600;86;20251;-86
2021/10/03 02:05:27;;;;;;;;;;;;;;;12.59;64.05;98274.42;1632300;86;20497;-83
2021/10/03 02:07:54;;;;;;;;;;;;;;;12.60;64.08;98276.58;1628405;86;21985;-83
2021/10/03 02:10:20;;;;;;;;;;;;;;;12.64;64.11;98270.95;1630310;86;26082;-86
2021/10/03 02:12:47;;;;;;;;;;;;;;;12.68;64.10;98264.95;1641278;86;24487;-88
2021/10/03 02:15:13;;;;;;;;;;;;;;;12.68;64.12;98261.86;1633146;86;20264;-88
2021/10/03 02:17:39;;;;;;;;;;;;;;;12.70;64.10;98257.33;1625429;86;20351;-83
2021/10/03 02:20:07;;;;;;;;;;;;;;;12.70;64.08;98253.39;1631391;87;22100;-87
2021/10/03 02:22:33;;;;;;;;;;;;;;;12.64;64.07;98255.20;1618998;87;25873;-84
2021/10/03 02:25:00;;;;;;;;;;;;;;;12.59;64.04;98261.30;1637159;87;24514;-83
2021/10/03 02:27:26;;;;;;;;;;;;;;;12.63;63.99;98267.12;1628626;87;20601;-85
2021/10/03 02:29:54;;;;;;;;;;;;;;;12.67;63.97;98272.48;1622433;87;24713;-83
2021/10/03 02:32:20;;;;;;;;;;;;;;;12.69;63.96;98278.45;1624460;87;21972;-83
2021/10/03 02:34:46;;;;;;;;;;;;;;;12.69;63.97;98274.03;1630665;87;26013;-87
2021/10/03 02:37:12;;;;;;;;;;;;;;;12.70;63.99;98264.37;1626497;87;24495;-82
2021/10/03 02:39:38;;;;;;;;;;;;;;;12.70;63.94;98259.11;1626545;87;20240;-83
2021/10/03 02:42:04;;;;;;;;;;;;;;;12.71;63.93;98264.22;1636569;87;20207;-83
2021/10/03 02:44:31;;;;;;;;;;;;;;;12.72;63.94;98267.20;1629118;87;22719;-87
2021/10/03 02:46:57;;;;;;;;;;;;;;;12.71;63.90;98276.03;1624132;87;26054;-87
2021/10/03 02:49:24;;;;;;;;;;;;;;;12.72;63.89;98272.45;1624910;87;24388;-87
2021/10/03 02:51:50;;;;;;;;;;;;;;;12.74;63.89;98272.34;1631295;87;20251;-85
2021/10/03 02:54:16;;;;;;;;;;;;;;;12.76;63.90;98264.71;1630032;87;24974;-87
2021/10/03 02:56:42;;;;;;;;;;;;;;;12.76;63.89;98263.39;1626429;87;21994;-87
2021/10/03 02:59:09;;;;;;;;;;;;;;;12.69;63.87;98251.72;1631082;87;26027;-88
2021/10/03 03:01:35;;;;;;;;;;;;;;;12.63;63.86;98252.20;1628325;87;24683;-88
2021/10/03 03:04:01;;;;;;;;;;;;;;;12.63;63.82;98256.15;1622904;87;20297;-87
2021/10/03 03:06:27;;;;;;;;;;;;;;;12.64;63.81;98258.30;1635338;87;24762;-86
2021/10/03 03:08:53;;;;;;;;;;;;;;;12.66;63.80;98265.08;1624901;87;22157;-84
2021/10/03 03:11:19;;;;;;;;;;;;;;;12.69;63.82;98261.38;1630823;85;26085;-87
2021/10/03 03:13:47;;;;;;;;;;;;;;;12.70;63.82;98256.02;1624601;87;25237;-84
2021/10/03 03:16:13;;;;;;;;;;;;;;;12.70;63.82;98254.70;1614166;87;20315;-87
2021/10/03 03:18:41;;;;;;;;;;;;;;;12.70;63.80;98256.48;1626037;87;20191;-87
2021/10/03 03:21:07;;;;;;;;;;;;;;;12.73;63.83;98254.91;1617427;86;22098;-82
2021/10/03 03:23:40;;;;;;;;;;;;;;;12.72;63.83;98252.77;1624546;87;21900;-85
2021/10/03 03:26:07;;;;;;;;;;;;;;;12.73;63.80;98254.91;1620659;87;25388;-87
2021/10/03 03:28:33;;;;;;;;;;;;;;;12.71;63.82;98256.34;1622082;87;20215;-87
2021/10/03 03:30:59;;;;;;;;;;;;;;;12.71;63.82;98259.48;1620685;87;20345;-88
2021/10/03 03:33:28;;;;;;;;;;;;;;;12.69;63.82;98256.13;1623301;87;20334;-88
2021/10/03 03:35:54;;;;;;;;;;;;;;;12.67;63.82;98255.41;1616441;87;26030;-86
2021/10/03 03:38:21;;;;;;;;;;;;;;;12.63;63.82;98249.58;1628778;87;24404;-88
2021/10/03 03:40:47;;;;;;;;;;;;;;;12.65;63.80;98238.97;1623419;87;20244;-83
2021/10/03 03:43:15;;;;;;;;;;;;;;;12.64;63.80;98235.50;1625904;87;20666;-87
2021/10/03 03:45:49;;;;;;;;;;;;;;;12.61;63.80;98238.36;1619454;87;21545;-84
2021/10/03 03:48:15;;;;;;;;;;;;;;;12.58;63.78;98241.25;1631509;87;26054;-88
2021/10/03 03:50:52;;;;;;;;;;;;;;;12.55;63.76;98244.11;1629170;87;24759;-86
2021/10/03 03:53:18;;;;;;;;;;;;;;;12.55;63.78;98236.23;1623210;87;20351;-84
2021/10/03 03:55:48;;;;;;;;;;;;;;;12.56;63.78;98237.42;1631207;87;20233;-87
2021/10/03 03:58:12;;;;;;;;;;;;;;;12.53;63.76;98233.75;1622876;87;22057;-88
2021/10/03 04:00:38;;;;;;;;;;;;;;;12.48;63.75;98241.64;1638218;87;26050;-89
2021/10/03 04:03:04;;;;;;;;;;;;;;;12.44;63.75;98250.22;1605437;87;25104;-88
2021/10/03 04:05:30;;;;;;;;;;;;;;;12.42;63.74;98248.22;1633085;87;20349;-86
2021/10/03 04:07:56;;;;;;;;;;;;;;;12.43;63.74;98235.93;1631039;87;24833;-88
2021/10/03 04:10:22;;;;;;;;;;;;;;;12.41;63.72;98232.58;1627631;87;21963;-82
2021/10/03 04:12:51;;;;;;;;;;;;;;;12.44;63.74;98241.03;1633024;87;26132;-87
2021/10/03 04:15:17;;;;;;;;;;;;;;;12.46;63.77;98250.94;1628546;87;24572;-87
2021/10/03 04:17:45;;;;;;;;;;;;;;;12.45;63.77;98242.70;1631731;87;20309;-87
2021/10/03 04:20:12;;;;;;;;;;;;;;;12.41;63.79;98239.14;1626457;87;24950;-88
2021/10/03 04:22:38;;;;;;;;;;;;;;;12.39;63.79;98237.11;1628246;87;22026;-88
2021/10/03 04:25:04;;;;;;;;;;;;;;;12.40;63.79;98234.38;1629269;87;26001;-88
2021/10/03 04:27:30;;;;;;;;;;;;;;;12.39;63.80;98236.63;1625051;87;24488;-86
2021/10/03 04:29:56;;;;;;;;;;;;;;;12.41;63.83;98233.89;1628832;87;20219;-86
2021/10/03 04:32:22;;;;;;;;;;;;;;;12.39;63.81;98239.73;1623685;87;24843;-85
2021/10/03 04:34:48;;;;;;;;;;;;;;;12.42;63.81;98241.66;1632381;87;22078;-86
2021/10/03 04:37:15;;;;;;;;;;;;;;;12.43;63.82;98243.33;1628608;87;26079;-88
2021/10/03 04:39:41;;;;;;;;;;;;;;;12.46;63.83;98237.82;1631861;87;24414;-86
2021/10/03 04:42:07;;;;;;;;;;;;;;;12.47;63.85;98232.93;1632815;87;20188;-84
2021/10/03 04:44:35;;;;;;;;;;;;;;;12.49;63.86;98233.62;1624608;87;24759;-87
2021/10/03 04:47:01;;;;;;;;;;;;;;;12.49;63.89;98227.06;1629626;87;22199;-87
2021/10/03 04:49:27;;;;;;;;;;;;;;;12.51;63.90;98231.72;1625661;87;26127;-87
2021/10/03 04:51:55;;;;;;;;;;;;;;;12.51;63.90;98226.47;1629625;87;24443;-87
2021/10/03 04:54:21;;;;;;;;;;;;;;;12.48;63.90;98226.73;1625771;87;20255;-88
2021/10/03 04:56:48;;;;;;;;;;;;;;;12.47;63.93;98230.30;1630746;87;20373;-87
2021/10/03 04:59:14;;;;;;;;;;;;;;;12.44;63.93;98225.28;1632537;87;21975;-86
2021/10/03 05:01:40;;;;;;;;;;;;;;;12.52;63.96;98224.68;1635207;87;26041;-83
2021/10/03 05:04:07;;;;;;;;;;;;;;;12.55;64.00;98226.56;1627169;87;24660;-82
2021/10/03 05:06:33;;;;;;;;;;;;;;;12.55;63.99;98225.73;1632632;87;20261;-84
2021/10/03 05:09:03;;;;;;;;;;;;;;;12.51;63.94;98218.59;1611963;87;20818;-87
2021/10/03 05:11:29;;;;;;;;;;;;;;;12.48;63.92;98220.17;1622369;87;22080;-83
2021/10/03 05:13:55;;;;;;;;;;;;;;;12.49;63.89;98214.44;1626381;87;21107;-83
2021/10/03 05:16:22;;;;;;;;;;;;;;;12.51;63.85;98212.03;1629262;87;25113;-83
2021/10/03 05:18:49;;;;;;;;;;;;;;;12.52;63.85;98214.18;1629412;86;20226;-82
2021/10/03 05:21:16;;;;;;;;;;;;;;;12.48;63.82;98213.61;1644061;86;20269;-83
2021/10/03 05:23:44;;;;;;;;;;;;;;;12.52;63.79;98204.99;1629442;86;21955;-87
2021/10/03 05:26:10;;;;;;;;;;;;;;;12.52;63.80;98204.52;1630098;86;26152;-84
2021/10/03 05:28:37;;;;;;;;;;;;;;;12.55;63.78;98210.81;1635468;86;20292;-87
2021/10/03 05:31:02;;;;;;;;;;;;;;;12.56;63.78;98212.97;1633499;86;20226;-88
2021/10/03 05:33:32;;;;;;;;;;;;;;;12.57;63.77;98216.78;1626791;86;20222;-85
2021/10/03 05:36:08;;;;;;;;;;;;;;;12.61;63.80;98211.27;1625180;86;22733;-87
2021/10/03 05:38:34;;;;;;;;;;;;;;;12.62;63.78;98214.26;1634628;86;26216;-83
2021/10/03 05:41:06;;;;;;;;;;;;;;;12.63;63.77;98211.52;1635137;86;20364;-88
2021/10/03 05:43:32;;;;;;;;;;;;;;;12.67;63.76;98209.46;1633406;86;20317;-87
2021/10/03 05:45:58;;;;;;;;;;;;;;;12.70;63.72;98202.19;1630721;86;24866;-83
2021/10/03 05:48:24;;;;;;;;;;;;;;;12.72;63.74;98199.41;1633193;85;22602;-88
2021/10/03 05:50:56;;;;;;;;;;;;;;;12.76;63.73;98199.06;1636828;86;25536;-88
2021/10/03 05:53:23;;;;;;;;;;;;;;;12.79;63.69;98186.14;1633569;86;25126;-87
2021/10/03 05:55:49;;;;;;;;;;;;;;;12.83;63.66;98187.06;1641362;86;20196;-88
2021/10/03 05:58:15;;;;;;;;;;;;;;;12.87;63.66;98188.47;1635480;86;24695;-88
2021/10/03 06:00:41;;;;;;;;;;;;;;;12.90;63.63;98182.98;1627402;86;20938;-83
2021/10/03 06:03:07;;;;;;;;;;;;;;;12.95;63.63;98188.69;1633055;86;26755;-88
2021/10/03 06:05:33;;;;;;;;;;;;;;;12.97;63.63;98194.66;1622496;86;20323;-88
2021/10/03 06:08:03;;;;;;;;;;;;;;;12.98;63.61;98191.04;1628624;86;20217;-88
2021/10/03 06:10:29;;;;;;;;;;;;;;;13.04;63.58;98191.52;1625822;87;24962;-84
2021/10/03 06:12:57;;;;;;;;;;;;;;;13.05;63.58;98183.48;1634269;87;20309;-88
2021/10/03 06:15:22;;;;;;;;;;;;;;;13.07;63.62;98181.58;1635936;87;26096;-83
2021/10/03 06:17:48;;;;;;;;;;;;;;;13.12;63.64;98183.36;1625386;87;24510;-87
2021/10/03 06:20:15;;;;;;;;;;;;;;;13.14;63.62;98181.45;1620034;87;20332;-87
2021/10/03 06:22:45;;;;;;;;;;;;;;;13.20;63.57;98178.79;1601708;89;24980;-84
2021/10/03 06:25:09;;;;;;;;;;;;;;;13.25;63.56;98168.72;1635057;87;22104;-85
2021/10/03 06:27:38;;;;;;;;;;;;;;;13.28;63.49;98176.33;1625045;86;26234;-87
2021/10/03 06:30:05;;;;;;;;;;;;;;;13.32;63.37;98177.72;1635284;86;24468;-88
2021/10/03 06:32:31;;;;;;;;;;;;;;;13.37;63.23;98172.91;1628008;86;20465;-85
2021/10/03 06:34:57;;;;;;;;;;;;;;;13.41;63.16;98178.28;1635890;86;24748;-85
2021/10/03 06:37:27;;;;;;;;;;;;;;;13.44;63.07;98179.31;1634466;86;22035;-88
2021/10/03 06:39:51;;;;;;;;;;;;;;;13.49;63.03;98182.38;1637787;86;26680;-84
2021/10/03 06:42:17;;;;;;;;;;;;;;;13.54;62.88;98191.18;1626472;86;20338;-84
2021/10/03 06:44:43;;;;;;;;;;;;;;;13.59;62.78;98184.56;1639690;86;20248;-86
2021/10/03 06:47:10;;;;;;;;;;;;;;;13.63;62.65;98191.25;1634674;86;24795;-83
2021/10/03 06:49:38;;;;;;;;;;;;;;;13.65;62.58;98193.25;1634766;86;22006;-87
2021/10/03 06:52:04;;;;;;;;;;;;;;;13.70;62.51;98200.25;1628515;86;26436;-83
2021/10/03 06:54:30;;;;;;;;;;;;;;;13.76;62.44;98202.84;1632364;86;24500;-83
2021/10/03 06:56:56;;;;;;;;;;;;;;;13.80;62.34;98197.69;1636269;85;20227;-87
2021/10/03 06:59:25;;;;;;;;;;;;;;;13.86;62.27;98203.70;1625914;86;24736;-86
2021/10/03 07:01:53;;;;;;;;;;;;;;;13.92;62.17;98202.34;1633764;86;21972;-83
2021/10/03 07:04:21;;;;;;;;;;;;;;;13.97;62.10;98202.28;1627201;86;25989;-84
2021/10/03 07:06:50;;;;;;;;;;;;;;;14.03;62.02;98204.86;1637633;86;25229;-85
2021/10/03 07:09:16;;;;;;;;;;;;;;;14.09;61.90;98201.22;1633062;86;20510;-86
2021/10/03 07:11:42;;;;;;;;;;;;;;;14.17;61.81;98200.55;1639938;86;25620;-85
2021/10/03 07:14:09;;;;;;;;;;;;;;;14.23;61.72;98194.27;1628758;86;20237;-84
2021/10/03 07:16:35;;;;;;;;;;;;;;;14.30;61.65;98204.23;1633765;86;25974;-84
2021/10/03 07:19:02;;;;;;;;;;;;;;;14.34;61.56;98192.00;1618636;85;24355;-84
2021/10/03 07:21:29;;;;;;;;;;;;;;;14.42;61.41;98196.60;1620747;86;20307;-84
2021/10/03 07:23:57;;;;;;;;;;;;;;;14.52;61.31;98187.73;1616124;87;24862;-86
2021/10/03 07:26:23;;;;;;;;;;;;;;;14.58;61.19;98192.45;1616439;87;22002;-86
2021/10/03 07:28:49;;;;;;;;;;;;;;;14.64;61.13;98191.08;1612362;87;25987;-84
2021/10/03 07:31:16;;;;;;;;;;;;;;;14.73;61.05;98196.02;1607066;87;24392;-84
2021/10/03 07:33:44;;;;;;;;;;;;;;;14.79;60.99;98196.27;1616987;87;20191;-85
2021/10/03 07:36:17;;;;;;;;;;;;;;;14.85;60.88;98196.19;1617881;87;24889;-84
2021/10/03 07:38:44;;;;;;;;;;;;;;;14.92;60.74;98203.90;1617107;87;22655;-86
2021/10/03 07:41:10;;;;;;;;;;;;;;;14.99;60.58;98197.94;1611170;87;25184;-85
2021/10/03 07:43:38;;;;;;;;;;;;;;;15.05;60.49;98203.14;1591517;87;39732;-84
2021/10/03 07:46:05;;;;;;;;;;;;;;;15.08;60.36;98199.72;1609874;87;20160;-84
2021/10/03 07:48:32;;;;;;;;;;;;;;;15.11;60.31;98186.73;1616782;87;25591;-87
2021/10/03 07:50:58;;;;;;;;;;;;;;;15.16;60.20;98192.44;1612491;87;22015;-87
2021/10/03 07:53:27;;;;;;;;;;;;;;;15.21;60.09;98183.61;1612085;87;26813;-87
2021/10/03 07:55:53;;;;;;;;;;;;;;;15.27;60.00;98192.76;1612299;87;24470;-87
2021/10/03 07:58:19;;;;;;;;;;;;;;;15.28;59.94;98182.05;1635261;87;20247;-86
2021/10/03 08:00:45;;;;;;;;;;;;;;;15.32;59.92;98191.36;1615090;87;24737;-86
2021/10/03 08:03:11;;;;;;;;;;;;;;;15.38;59.85;98193.91;1611328;87;21968;-86
2021/10/03 08:05:37;;;;;;;;;;;;;;;15.43;59.79;98194.31;1623301;87;21070;-83
2021/10/03 08:08:04;;;;;;;;;;;;;;;15.47;59.72;98197.00;1617174;87;24519;-87
2021/10/03 08:10:32;;;;;;;;;;;;;;;15.50;59.65;98205.45;1619121;87;20483;-87
2021/10/03 08:12:58;;;;;;;;;;;;;;;15.55;59.53;98210.83;1619474;87;24743;-82
2021/10/03 08:15:28;;;;;;;;;;;;;;;15.58;59.35;98202.63;1605879;87;20432;-87
2021/10/03 08:17:55;;;;;;;;;;;;;;;15.59;59.25;98202.48;1614995;87;26077;-87
2021/10/03 08:20:21;;;;;;;;;;;;;;;15.60;59.16;98196.20;1608182;87;24458;-87
2021/10/03 08:22:48;;;;;;;;;;;;;;;15.63;59.06;98188.51;1600883;89;20489;-83
2021/10/03 08:25:14;;;;;;;;;;;;;;;15.69;58.99;98187.45;1577023;89;24714;-87
2021/10/03 08:27:40;;;;;;;;;;;;;;;15.72;58.94;98183.19;1629272;87;22102;-88
2021/10/03 08:30:09;;;;;;;;;;;;;;;15.79;58.95;98184.76;1631388;87;26000;-86
2021/10/03 08:32:35;;;;;;;;;;;;;;;15.86;58.90;98183.20;1621660;87;24457;-86
2021/10/03 08:35:02;;;;;;;;;;;;;;;15.90;58.84;98186.72;1618682;87;20293;-86
2021/10/03 08:37:28;;;;;;;;;;;;;;;15.95;58.79;98177.53;1630906;85;24890;-83
2021/10/03 08:39:54;;;;;;;;;;;;;;;16.02;58.80;98183.89;1631666;87;20238;-83
2021/10/03 08:42:20;;;;;;;;;;;;;;;16.11;58.77;98185.63;1635087;87;20989;-88
2021/10/03 08:44:47;;;;;;;;;;;;;;;16.20;58.74;98181.61;1636284;87;20253;-88
2021/10/03 08:47:14;;;;;;;;;;;;;;;16.27;58.71;98182.69;1623481;87;20228;-83
2021/10/03 08:49:43;;;;;;;;;;;;;;;16.30;58.64;98183.72;1630255;87;24756;-87
2021/10/03 08:52:09;;;;;;;;;;;;;;;16.38;58.50;98180.80;1630368;87;21980;-87
2021/10/03 08:54:36;;;;;;;;;;;;;;;16.46;58.43;98175.62;1631179;87;26711;-84
2021/10/03 08:57:05;;;;;;;;;;;;;;;16.51;58.38;98172.03;1630755;87;24464;-84
2021/10/03 08:59:34;;;;;;;;;;;;;;;16.61;58.29;98168.86;1620597;87;20542;-84
2021/10/03 09:02:03;;;;;;;;;;;;;;;16.68;58.21;98166.79;1618207;87;24770;-83
2021/10/03 09:04:35;;;;;;;;;;;;;;;16.72;58.17;98152.77;1624603;87;21999;-86
2021/10/03 09:07:02;;;;;;;;;;;;;;;16.78;58.10;98161.90;1624624;87;26056;-88
2021/10/03 09:09:47;;;;;;;;;;;;;;;16.85;58.02;98152.39;1602792;89;24406;-87
2021/10/03 09:12:23;;;;;;;;;;;;;;;16.92;57.93;98154.24;1598303;88;20262;-87
2021/10/03 09:14:52;;;;;;;;;;;;;;;17.00;57.85;98154.81;1625375;86;24808;-83
2021/10/03 09:17:18;;;;;;;;;;;;;;;17.04;57.79;98163.59;1639220;86;22284;-84
2021/10/03 09:20:05;;;;;;;;;;;;;;;17.12;57.75;98166.31;1626772;85;23253;-84
2021/10/03 09:22:31;;;;;;;;;;;;;;;17.22;57.72;98165.38;1627232;87;24481;-84
2021/10/03 09:24:59;;;;;;;;;;;;;;;17.26;57.65;98160.94;1628139;87;20308;-84
2021/10/03 09:27:26;;;;;;;;;;;;;;;17.37;57.56;98169.10;1619512;87;24820;-84
2021/10/03 09:29:54;;;;;;;;;;;;;;;17.44;57.52;98163.04;1623339;87;22112;-88
2021/10/03 09:32:21;;;;;;;;;;;;;;;17.54;57.42;98161.59;1620112;87;26007;-84
2021/10/03 09:34:49;;;;;;;;;;;;;;;17.61;57.32;98160.52;1622379;87;24527;-83
2021/10/03 09:37:20;;;;;;;;;;;;;;;17.66;57.25;98156.90;1633431;85;20306;-86
2021/10/03 09:39:50;;;;;;;;;;;;;;;17.71;57.15;98162.55;1633228;87;24826;-83
2021/10/03 09:42:16;;;;;;;;;;;;;;;17.78;57.00;98159.61;1625138;87;22881;-83
2021/10/03 09:45:00;;;;;;;;;;;;;;;17.81;56.94;98148.19;1632425;87;26057;-88
2021/10/03 09:47:26;;;;;;;;;;;;;;;17.85;56.89;98157.47;1623539;87;25374;-83
2021/10/03 09:49:52;;;;;;;;;;;;;;;17.90;56.79;98159.62;1630328;87;20270;-87
2021/10/03 09:52:19;;;;;;;;;;;;;;;17.95;56.66;98159.48;1629986;87;25581;-83
2021/10/03 09:54:47;;;;;;;;;;;;;;;18.00;56.64;98160.84;1628980;87;22053;-87
2021/10/03 09:57:14;;;;;;;;;;;;;;;18.06;56.57;98149.59;1619798;87;26031;-88
2021/10/03 09:59:45;;;;;;;;;;;;;;;18.08;56.49;98143.16;1628185;87;24745;-82
2021/10/03 10:02:12;;;;;;;;;;;;;;;18.10;56.38;98145.16;1622959;87;20490;-84
2021/10/03 10:04:39;;;;;;;;;;;;;;;18.15;56.20;98140.70;1627195;87;24927;-83
2021/10/03 10:07:08;;;;;;;;;;;;;;;18.18;56.13;98139.03;1628001;87;22155;-86
2021/10/03 10:09:34;;;;;;;;;;;;;;;18.21;56.08;98134.75;1633804;87;26010;-83
2021/10/03 10:12:02;;;;;;;;;;;;;;;18.24;56.06;98138.39;1634629;87;24448;-83
2021/10/03 10:14:30;;;;;;;;;;;;;;;18.29;56.04;98133.43;1618525;87;20526;-88
2021/10/03 10:17:00;;;;;;;;;;;;;;;18.29;55.99;98133.43;1625357;87;24829;-86
2021/10/03 10:19:34;;;;;;;;;;;;;;;18.34;55.93;98131.12;1620972;86;22041;-86
2021/10/03 10:22:24;;;;;;;;;;;;;;;18.42;55.91;98128.98;1625716;87;26005;-86
2021/10/03 10:24:54;;;;;;;;;;;;;;;18.50;55.90;98136.94;1627639;87;24440;-87
2021/10/03 10:27:25;;;;;;;;;;;;;;;18.58;55.86;98135.17;1624571;87;20244;-87
2021/10/03 10:29:54;;;;;;;;;;;;;;;18.69;55.84;98138.82;1625312;87;24777;-86
2021/10/03 10:32:23;;;;;;;;;;;;;;;18.77;55.77;98132.67;1622453;87;22002;-86
2021/10/03 10:35:09;;;;;;;;;;;;;;;18.83;55.74;98134.66;1623717;87;26005;-84
2021/10/03 10:37:55;;;;;;;;;;;;;;;18.92;55.73;98123.08;1624654;87;25286;-86
2021/10/03 10:40:26;;;;;;;;;;;;;;;19.02;55.63;98121.07;1624107;87;20263;-88
2021/10/03 10:42:53;;;;;;;;;;;;;;;19.12;55.59;98119.06;1627235;87;24987;-83
2021/10/03 10:45:30;;;;;;;;;;;;;;;19.18;55.51;98117.56;1638271;87;22185;-83
2021/10/03 10:48:10;;;;;;;;;;;;;;;19.25;55.41;98117.72;1626928;87;26104;-83
2021/10/03 10:50:38;;;;;;;;;;;;;;;19.33;55.30;98111.05;1621506;87;25217;-84
2021/10/03 10:53:23;;;;;;;;;;;;;;;19.37;55.27;98105.23;1623851;87;20190;-86
2021/10/03 10:56:02;;;;;;;;;;;;;;;19.45;55.23;98106.58;1631111;87;24786;-83
2021/10/03 10:58:29;;;;;;;;;;;;;;;19.50;55.05;98110.87;1630057;87;22163;-84
2021/10/03 11:01:00;;;;;;;;;;;;;;;19.59;54.91;98115.14;1626338;87;26000;-84
2021/10/03 11:03:43;;;;;;;;;;;;;;;19.59;54.79;98107.17;1627839;87;24014;-87
2021/10/03 11:06:11;;;;;;;;;;;;;;;19.60;54.62;98104.03;1622446;87;20243;-88
2021/10/03 11:08:55;;;;;;;;;;;;;;;19.60;54.49;98102.70;1625643;87;24739;-88
2021/10/03 11:11:23;;;;;;;;;;;;;;;19.57;54.38;98100.41;1625415;87;22775;-83
2021/10/03 11:13:50;;;;;;;;;;;;;;;19.55;54.27;98097.91;1631526;87;26260;-83
2021/10/03 11:16:24;;;;;;;;;;;;;;;19.60;54.16;98092.91;1632108;87;25305;-84
2021/10/03 11:18:51;;;;;;;;;;;;;;;19.63;54.05;98085.95;1620389;87;20322;-83
2021/10/03 11:21:20;;;;;;;;;;;;;;;19.67;53.95;98085.59;1626784;87;24809;-88
2021/10/03 11:23:47;;;;;;;;;;;;;;;19.71;53.81;98082.91;1625366;85;22349;-86
2021/10/03 11:26:13;;;;;;;;;;;;;;;19.77;53.76;98074.25;1604894;87;26854;-86
2021/10/03 11:28:50;;;;;;;;;;;;;;;19.82;53.73;98074.05;1625963;87;24592;-88
2021/10/03 11:31:34;;;;;;;;;;;;;;;19.87;53.70;98077.52;1630839;87;20350;-87
2021/10/03 11:34:01;;;;;;;;;;;;;;;19.86;53.54;98075.35;1621662;87;25638;-87
2021/10/03 11:36:27;;;;;;;;;;;;;;;19.87;53.38;98077.52;1624900;87;22082;-86
2021/10/03 11:38:53;;;;;;;;;;;;;;;19.95;53.33;98077.48;1623756;87;26045;-86
2021/10/03 11:41:20;;;;;;;;;;;;;;;20.00;53.18;98071.14;1631304;87;20351;-84
2021/10/03 11:43:46;;;;;;;;;;;;;;;20.05;53.09;98074.92;1631644;87;20409;-88
2021/10/03 11:46:12;;;;;;;;;;;;;;;20.13;53.01;98066.59;1623296;87;20803;-86
2021/10/03 11:48:38;;;;;;;;;;;;;;;20.19;52.98;98066.69;1633180;87;20270;-86
2021/10/03 11:51:04;;;;;;;;;;;;;;;20.25;52.91;98064.66;1628446;87;21222;-83
2021/10/03 11:53:31;;;;;;;;;;;;;;;20.31;52.93;98065.78;1627155;87;20873;-83
2021/10/03 11:56:07;;;;;;;;;;;;;;;20.37;52.94;98065.93;1624295;87;20190;-83
2021/10/03 11:58:37;;;;;;;;;;;;;;;20.44;52.92;98062.06;1631147;87;24989;-88
2021/10/03 12:01:08;;;;;;;;;;;;;;;20.50;52.86;98061.86;1637380;87;22031;-86
2021/10/03 12:03:34;;;;;;;;;;;;;;;20.44;52.68;98053.59;1623460;87;26074;-86
2021/10/03 12:06:02;;;;;;;;;;;;;;;20.43;52.42;98053.27;1632226;87;25355;-87
2021/10/03 12:08:33;;;;;;;;;;;;;;;20.40;52.19;98045.62;1620535;87;20175;-88
2021/10/03 12:11:01;;;;;;;;;;;;;;;20.40;52.05;98053.59;1620656;87;25822;-88
2021/10/03 12:13:32;;;;;;;;;;;;;;;20.38;51.85;98042.84;1622270;87;22141;-88
2021/10/03 12:16:06;;;;;;;;;;;;;;;20.37;51.65;98043.84;1639685;87;26973;-84
2021/10/03 12:18:32;;;;;;;;;;;;;;;20.39;51.54;98044.50;1626259;86;24461;-83
2021/10/03 12:21:02;;;;;;;;;;;;;;;20.42;51.47;98044.13;1625638;85;20164;-84
2021/10/03 12:23:47;;;;;;;;;;;;;;;20.45;51.39;98037.14;1633891;87;25635;-83
2021/10/03 12:26:14;;;;;;;;;;;;;;;20.47;51.40;98033.78;1632148;87;22332;-83
2021/10/03 12:28:57;;;;;;;;;;;;;;;20.47;51.33;98033.78;1633266;87;26156;-88
2021/10/03 12:31:25;;;;;;;;;;;;;;;20.46;51.29;98029.47;1615978;87;25212;-88
2021/10/03 12:33:51;;;;;;;;;;;;;;;20.45;51.27;98029.17;1620700;87;20260;-87
2021/10/03 12:36:17;;;;;;;;;;;;;;;20.45;51.25;98031.83;1627972;87;20331;-84
2021/10/03 12:38:43;;;;;;;;;;;;;;;20.46;51.10;98028.14;1630928;87;20322;-86
2021/10/03 12:41:12;;;;;;;;;;;;;;;20.50;51.05;98025.97;1626372;87;26085;-86
2021/10/03 12:43:39;;;;;;;;;;;;;;;20.52;50.98;98021.28;1630564;87;24288;-83
2021/10/03 12:46:05;;;;;;;;;;;;;;;20.57;50.93;98021.56;1625509;87;20251;-88
2021/10/03 12:48:31;;;;;;;;;;;;;;;20.56;50.80;98020.77;1619248;87;24754;-84
2021/10/03 12:50:58;;;;;;;;;;;;;;;20.57;50.79;98021.06;1621745;87;21999;-85